Terminal Aerodrome Forecast
Issued by NWS

Home | Current Version | Previous Version | Text Only | Print | Product List | Glossary On
Versions: 1 2 3 4 5 6 7 8 9 10 11 12 13 14 15 16 17 18 19 20 21 22 23 24 25
000
FTAK31 PAFA 171736
TAFATA
TAF
PATA 171736Z 1718/1818 09006KT P6SM -SHSN BKN020 OVC050
     FM180000 VRB03KT P6SM SCT015 BKN050
     FM180600 VRB03KT P6SM SCT050 SCT110=

USA.gov is the U.S. government's official web portal to all federal, state and local government web resources and services.